Latest METARs, TAFs and NOTAMs for LIML


---------------------------------------------------------------------------
	(OBSERVATIONS)
LIML 231950Z 03005KT 9999 BKN090 13/10 Q1019 NOSIG=
LIML 231920Z 04005KT 360V070 9999 BKN090 13/10 Q1018 NOSIG=
LIML 231850Z 05004KT 360V090 9999 BKN090 13/11 Q1018 NOSIG=
LIML 231820Z 04004KT 360V070 9999 BKN090 13/11 Q1018 NOSIG=
LIML 231750Z 03007KT 9999 BKN050 13/12 Q1017 NOSIG=
LIML 231720Z 36002KT 9999 BKN050 13/12 Q1017 NOSIG=
---------------------------------------------------------------------------
	(FC)
Sorry, FC For LIML Not Found
---------------------------------------------------------------------------
	(TERMINAL AREA FORECAST)
LIML 231700Z 2318/2418 10007KT 4000 RA SCT015 BKN030
    TEMPO 2318/2324 2500 SHRA
    PROB40 TEMPO 2318/2322 2000 TSRA
    BECMG 2408/2410 7000 NSW=
---------------------------------------------------------------------------
	(NOTAMS)


LIML A0164/17 GENOVA NDB 'GEN' FREQ 318.00KHZ UNSERVICEABLE REF
    AIP AD 2 LIML 1-7. 11 JAN 11:25 2017 UNTIL 08 APR 23:59 2017
    ESTIMATED. CREATED: 11 JAN 11:25 2017

LIML A1016/17 GENOVA VOR/DME 'GEN' FREQ 112.80MHZ CH75X AVBL
    AS FLW: -VOR UNSERVICEABLE -DME OPERATIVE REF AIP AD 2 LIML
    1-7. 16 FEB 14:40 2017 UNTIL 14 MAY 23:59 2017 ESTIMATED.
    CREATED: 16 FEB 14:40 2017

LIML A1085/17 A-CDM (AIRPORT COLLABORATIVE DECISION MAKING) LIML
    (MILANO/LINATE AD) - FULL A-CDM OPERATIONS. ACCORDING TO
    THE ITALIAN CIVIL AVIATION AUTHORITY PROVISION 05/2015 AND
    AIC 19/2012 START UP PROCEDURE FOR BOTH COMMERCIAL AND GENERAL
    AVIATION CHG AS FOLLOWS: -TOBT (TARGET OFF-BLOCK TIME) MUST
    BE PROVIDED BY AIRCRAFT OPERATOR/HANDLING AGENT -IF TOBT
    (TARGET OFF-BLOCK TIME) CAN NO LONGER BE MET, AT ANY TIME,
    THEN TOBT MUST BE UPDATED BY AIRCRAFT OPERATOR/HANDLING AGENT
    -IF AT TOBT PLUS 5 MINUTES THE AIRCRAFT IS NOT READY, THEN
    TOBT MUST BE UPDATED BY AIRCRAFT OPERATOR/HANDLING AGENT,
    -WHEN HANDLING OPERATIONS ARE COMPLETED, DOORS CLOSED, LOADING
    BRIDGE, IF ANY, RETRACTED, READY TO PUSH-BACK OR TAXI, BEFORE
    REQUESTING ATC START UP CLEARENCE TO LINATE TWR ON 'GROUND
    FREQ' 121.800MHZ, PILOT MUST HAVE RECEIVED 'READY ISSUED
    FROM APRON MANAGEMENT SERVICE UNIT' FROM RAMP AGENT ACCORDING
    TO APRON MANAGEMENT SERVICE PROCEDURES INCLUDED IN CIVIL
    AVIATION AUTHORITY PROVISION 05/2015 END PART 1 OF 2. 20
    FEB 15:46 2017 UNTIL 20 MAY 23:59 2017 ESTIMATED. CREATED:
    20 FEB 15:48 2017

LIML A1085/17 -WHEN RECEIVED FROM APRON MANAGEMENT SERVICE UNIT
    RAMP AGENTS SHALL INFORM PILOTS ABOUT READY ISSUED AND COMMUNICATE
    LAST TSAT (TARGET START UP APPROVAL TIME) -PILOTS MUST TAKE
    NOTE OF LAST TSAT RECEIVED AND COMPLY WITH IT -LINATE 'GROUND
    FREQ' ON PILOT REQUEST WILL APPROVE START UP ACCORDING TO
    TSAT AND PREVAILING TRAFFIC SITUATION -PUSH BACK AND TAXIING
    MUST BE STARTED AFTER START UP CLEARANCE (ASAT) WITHIN 3
    AND 5MIN RESPECTIVELY -A PERMANENT AND FULLY AUTOMATIC DATA
    EXCHANGE WITH THE NMOC(NETWORK MANAGER OPERATIONS CENTRE)
    WILL BE ESTABLISHED VIA DPI (DEPARTURE PLANNING INFORMATION)
    MESSAGES. THIS DATA TRANSFER WILL ENABLE HIGHLY ACCURATE
    EARLY PREDICTIONS DEPARTURE TIMES. THIS WILL ALLOW FOR MORE
    ACCURATE AND EFFICIENT CALCULATION OF THE CTOT DUE TO THE
    USE OF LOCAL TARGET TAKE-OFF TIMES.THE BASIC NMOC PROCEDURES
    CONTINUE TO APPLY. THE NMOC WILL GENERALLY TAKE THESE LOCAL
    TARGET TAKE-OFF TIMES INTO CONSIDERATION AND WILL TRY TO
    ADJUST THEM ACCORDINGLY. REF AIP AD 2 LIML 1-9/10 END PART
    2 OF 2. 20 FEB 15:46 2017 UNTIL 20 MAY 23:59 2017 ESTIMATED.
    CREATED: 20 FEB 15:48 2017

LIML A1374/17 REF AIP AD 2 LIML 1-7 ITEM 19 'RADIO NAVIGATION
    AND LANDING AIDS' REFERRING VOR/DME 'MMP' FREQ 113.35MHZ
    CH 80Y COLUMN 8 'REMARKS' ADD AS FLW: MAINT VOR: SECOND MONDAY
    EACH MONTH 2000-2200 (1900-2100. 07 MAR 10:36 2017 UNTIL
    PERM. CREATED: 07 MAR 10:36 2017

LIML A1506/16 REF AOC TYPE B NR ML 4/0 NEW OBSTACLE ERECTED CRANE
    PENETRATING INNER HORIZONTAL SURFACE PSN COORD (WGS-84):
    452707.3N 0091500.4E MAX ELEV AGL 52.0M/170.6FT MAX ELEV
    AMSL 160.0M/524.9FT ROTATING JIB 45M DAY ICAO SGL PROVIDED.
    15 MAR 00:00 2016 UNTIL PERM. CREATED: 14 MAR 16:07 2016

LIML A1542/17 TORINO VOR/DME 'TOP' FREQ 114.50MHZ CH 92X AVBL
    AS FLW: - VOR ON TEST, DO NOT USE - DME OPR, TEMPORARILY
    DISPLACED NEW POSITION: COORDINATES 445530.8N0075140.4E,
    ELEV 257M AMSL REF AIP AD 2 LIML 1-8. 15 MAR 13:57 2017 UNTIL
    12 MAY 23:59 2017 ESTIMATED. CREATED: 15 MAR 13:57 2017

LIML A1597/17 RUNWAY 17/35 CLOSED AND USED AS PARKING AREA. RMK:
    HEL/FATO NOT AFFECTED. REF AIP AD 2 LIML 2-1. 16 MAR 15:25
    2017 UNTIL 25 MAY 10:00 2017. CREATED: 16 MAR 15:25 2017

LIML A1599/17 LANDING NOT ALLOWED TO SKID-EQUIPPED HELICOPTERS
    EVEN IF PROVIDED WITH WHEELS ON BOARD. TRAFFIC NOT AFFECTED:
    MIL, STATE, HOSPITAL FLT AND HEL BASED AT LIML AD. REF AIP
    AD 2 LIML 1-14. 16 MAR 15:31 2017 UNTIL 25 MAY 10:00 2017.
    CREATED: 16 MAR 15:31 2017

LIML A1605/17 LANDING AND TKOF NOT ALLOWED TO VFR FIXED WING
    ACFT. TFC NOT AFFECTED: MIL, STATE, HUMANITARIAN AND HOSPITAL
    FLIGHT REF AIP AD 2 LIML 1-14. DAILY 0501-0900 1101-1400
    AND 1601-2200, 16 MAR 16:10 2017 UNTIL 25 MAR 22:00 2017.
    CREATED: 16 MAR 16:10 2017

LIML A1731/17 RWY 18/36, HEL/FATO AND ALL TWY CLSD DUE TO MAINT
    WORKS. REF AIP AD2 LIML 2-1. 24 MAR 22:45 2017 UNTIL 25 MAR
    04:45 2017. CREATED: 22 MAR 09:09 2017

LIML A1732/17 HEL/FATO CLOSED DUE TO SPECIAL EVENT. REF AIP AD2
    LIML 2-1. 25 MAR 05:30 2017 UNTIL 25 MAR 08:30 2017 ESTIMATED.
    CREATED: 22 MAR 09:09 2017

LIML A1764/17 LANDING AND TKOF NOT ALLOWED TO VFR FIXED WING
    ACFT. TFC NOT AFFECTED: MIL, STATE, HUMANITARIAN AND HOSPITAL
    FLIGHT. REF AIP AD 2 LIML 1-14. DAILY 0401-0800, 1001-1300
    AND 1501-2100, 26 MAR 04:01 2017 UNTIL 25 MAY 21:00 2017.
    CREATED: 22 MAR 23:08 2017

LIML A1781/17 OPERATIONS OF ACFT WITH MTOW (MAXIMUM TKOF WEIGHT)
    LESS THAN 5000KG NOT ALLOWED EXC STATE ACFT, STATE FLT, RESCUE
    AND EMERGENCY FLT, FLT EXPRESSLY AUTHORIZED REF AIP AD 2
    LIML 1-1. 25 MAR 05:30 2017 UNTIL 25 MAR 07:30 2017. CREATED:
    23 MAR 12:28 2017

LIML A1782/17 OPERATIONS OF ACFT WITH MTOW (MAXIMUM TKOF WEIGHT)
    LESS THAN 5000KG NOT ALLOWED EXC STATE ACFT, STATE FLT, RESCUE
    AND EMERGENCY FLT, FLT EXPRESSLY AUTHORIZED REF AIP AD 2
    LIML 1-1. 25 MAR 16:00 2017 UNTIL 25 MAR 18:00 2017 ESTIMATED.
    CREATED: 23 MAR 12:29 2017

LIML A3860/16 REF AIP AD 2 LIML 3-1 (AOC ICAO TYPE A NR ML A1
    4/0) OBSTACLE CRANE PSN 3951.2M AFTER THR36 AND 338.9M RIGHT
    RCL ON TAKE- OFF DIRECTION, COORD (WGS-84) 452812.0N 0091643.4E
    AMSL 134.5M/441.3FT COMPLETELY WITHDRAWN. 09 JUN 07:26 2016
    UNTIL PERM. CREATED: 09 JUN 07:26 2016

LIML A7302/16 REF AOC TYPE B NR ML 4/0 NEW OBSTACLE POLE ERECTED
    PENETRATING CONICAL SURFACE PSN COORD (WGS-84): 452858.8N
    0091428.4E MAX ELEV AGL 37.6M/123.3FT MAX ELEV AMSL 155.8M/511.1FT
    ICAO SIGNAL UNPROVIDED. 17 OCT 13:54 2016 UNTIL PERM. CREATED:
    17 OCT 13:53 2016

LIML M1020/17 REF FLIP (CENTRAL AND NORTHERN ITALY) AD LIML 1-5
    'ILS-Z RWY 36' MILANO/LINATE CHG MISSED APPROACH AS FLW:
    PROCEED ON TR 355DEG CLIMBING TO 3000FT. AT 2.5NM DME (4NM
    ILNT DME) AFTER LIN VOR AT 1000FT OR ABOVE TURN RIGHT (IAS
    MAX 220KT) UNTIL JOINING RDL 105 LIN VOR BOUND TO MISSED
    APPROACH HOLDING PATTERN. HOLD BETWEEN 11 NM AND 14 NM LIN
    DME, INBOUND TR 285DEG, RIGHT TURN, IAS MAX 210KT. OTHER
    INFORMATION UNCHANGED. 08 MAR 08:52 2017 UNTIL PERM. CREATED:
    08 MAR 08:52 2017

---------------------------------------------------------------------------